Time;durP1;ratioP1;P1;durP2;ratioP2;P2;SDS_P1;SDS_P2;PMS_P1;PMS_P2;Temp;Humidity;BMP_temperature;BMP_pressure;BME280_temperature;BME280_humidity;BME280_pressure;Samples;Min_cycle;Max_cycle;Signal;HPM_P1;HPM_P2
2022/01/26 00:06:43;;;;;;;23.95;9.63;;;6.90;93.30;;;;;;5009778;28;20025;-67
2022/01/26 00:09:10;;;;;;;27.85;10.82;;;6.80;93.30;;;;;;5011547;28;20179;-66
2022/01/26 00:11:37;;;;;;;27.85;11.02;;;6.90;93.20;;;;;;5012102;28;20060;-67
2022/01/26 00:14:13;;;;;;;18.73;8.85;;;6.90;93.00;;;;;;5014869;28;20517;-67
2022/01/26 00:16:42;;;;;;;21.38;8.68;;;6.80;93.10;;;;;;5025861;28;20029;-67
2022/01/26 00:19:13;;;;;;;21.90;9.00;;;6.80;93.20;;;;;;5009709;28;20565;-68
2022/01/26 00:21:47;;;;;;;24.67;9.75;;;6.80;93.20;;;;;;5009514;28;20036;-71
2022/01/26 00:29:37;;;;;;;19.38;8.38;;;6.80;93.20;;;;;;5015303;28;20072;-68
2022/01/26 00:43:12;;;;;;;21.25;9.27;;;6.80;93.30;;;;;;5010755;28;20117;-66
2022/01/26 00:45:40;;;;;;;23.17;9.80;;;6.80;93.30;;;;;;5012252;28;20025;-66
2022/01/26 00:48:08;;;;;;;21.52;8.95;;;6.80;93.30;;;;;;5009391;28;20121;-66
2022/01/26 00:50:36;;;;;;;22.08;9.43;;;6.80;93.30;;;;;;5014629;28;20042;-66
2022/01/26 00:53:03;;;;;;;21.25;8.52;;;6.80;93.20;;;;;;5018556;28;20477;-66
2022/01/26 00:55:29;;;;;;;21.70;9.45;;;6.80;93.10;;;;;;5021865;28;20029;-66
2022/01/26 00:57:55;;;;;;;24.75;9.32;;;6.80;93.10;;;;;;5017535;28;20037;-66
2022/01/26 01:00:24;;;;;;;23.33;9.00;;;6.80;93.10;;;;;;5018048;28;20048;-66
2022/01/26 01:02:51;;;;;;;21.38;8.60;;;6.90;93.10;;;;;;5014444;28;20044;-66
2022/01/26 01:05:21;;;;;;;21.90;9.23;;;6.80;93.10;;;;;;5012160;28;20021;-66
2022/01/26 01:07:51;;;;;;;21.50;8.52;;;6.80;93.10;;;;;;5018861;28;20026;-66
2022/01/26 01:10:21;;;;;;;24.15;10.25;;;6.80;93.10;;;;;;5016222;28;20197;-66
2022/01/26 01:12:49;;;;;;;22.20;9.80;;;6.80;93.10;;;;;;5015705;28;20034;-66
2022/01/26 01:15:15;;;;;;;25.45;10.48;;;6.80;93.10;;;;;;5014199;28;20048;-66
2022/01/26 01:17:47;;;;;;;21.85;9.10;;;6.80;93.00;;;;;;5014404;28;20973;-66
2022/01/26 01:20:49;;;;;;;25.48;10.40;;;6.80;93.10;;;;;;5011563;28;20038;-66
2022/01/26 01:31:16;;;;;;;22.83;10.18;;;6.80;93.20;;;;;;5013567;28;20498;-66
2022/01/26 01:33:47;;;;;;;24.95;10.52;;;6.70;93.10;;;;;;5012006;28;20034;-66
2022/01/26 01:36:13;;;;;;;26.65;9.98;;;6.80;93.20;;;;;;5016022;28;20046;-66
2022/01/26 01:38:41;;;;;;;28.13;11.38;;;6.70;93.20;;;;;;5020644;28;20053;-66
2022/01/26 01:41:08;;;;;;;21.13;9.63;;;6.70;93.10;;;;;;5011949;28;20453;-65
2022/01/26 01:43:34;;;;;;;25.02;10.80;;;6.70;93.20;;;;;;5017356;28;20037;-66
2022/01/26 01:46:00;;;;;;;25.65;10.35;;;6.70;93.20;;;;;;5015022;28;20106;-66
2022/01/26 01:48:30;;;;;;;26.95;11.18;;;6.70;93.10;;;;;;5010484;28;20038;-66
2022/01/26 01:51:00;;;;;;;25.77;10.48;;;6.70;93.10;;;;;;5014580;28;20115;-66
2022/01/26 01:53:37;;;;;;;23.17;10.05;;;6.70;93.10;;;;;;5012547;28;20061;-66
2022/01/26 01:56:04;;;;;;;27.00;11.15;;;6.70;93.20;;;;;;5013395;28;20034;-66
2022/01/26 01:58:30;;;;;;;25.27;10.95;;;6.70;93.10;;;;;;5013279;28;20034;-66
2022/01/26 02:00:56;;;;;;;26.50;11.50;;;6.70;93.00;;;;;;5008421;28;20044;-66
2022/01/26 02:03:23;;;;;;;29.30;11.45;;;6.70;92.90;;;;;;5016101;28;20037;-66
2022/01/26 02:05:49;;;;;;;26.35;10.13;;;6.60;93.00;;;;;;4998712;28;20130;-66
2022/01/26 02:08:15;;;;;;;26.35;10.32;;;6.60;92.90;;;;;;5015754;28;20116;-66
2022/01/26 02:10:41;;;;;;;22.08;9.88;;;6.60;93.00;;;;;;5015775;28;20038;-66
2022/01/26 02:15:53;;;;;;;22.92;9.20;;;6.60;93.00;;;;;;5013970;28;20038;-66
2022/01/26 02:56:02;;;;;;;20.05;8.68;;;6.50;92.70;;;;;;5012691;28;20034;-66
2022/01/26 03:02:07;;;;;;;18.63;8.30;;;6.50;92.70;;;;;;5016376;28;20025;-66
2022/01/26 03:06:39;;;;;;;19.73;8.23;;;6.40;92.40;;;;;;5019230;28;20025;-66
2022/01/26 03:09:11;;;;;;;16.73;7.68;;;6.30;92.40;;;;;;5015275;28;20818;-66
2022/01/26 03:11:39;;;;;;;16.35;7.13;;;6.30;92.60;;;;;;5017708;28;20037;-66
2022/01/26 03:14:15;;;;;;;17.38;8.13;;;6.30;92.60;;;;;;5017777;28;20634;-65
2022/01/26 03:16:47;;;;;;;16.33;8.27;;;6.30;92.70;;;;;;5013204;28;20840;-66
2022/01/26 03:21:54;;;;;;;19.13;7.00;;;6.40;92.80;;;;;;5010542;28;20112;-66
2022/01/26 03:29:59;;;;;;;15.00;7.22;;;6.30;92.70;;;;;;5010231;28;20504;-67
2022/01/26 03:35:16;;;;;;;13.35;5.32;;;6.40;92.50;;;;;;5016251;28;20528;-65
2022/01/26 03:37:51;;;;;;;15.05;6.65;;;6.40;92.40;;;;;;5011003;28;20155;-65
2022/01/26 03:40:17;;;;;;;17.23;5.97;;;6.40;92.50;;;;;;5026102;28;20136;-65
2022/01/26 03:42:43;;;;;;;13.95;6.35;;;6.40;92.40;;;;;;5017286;28;20032;-66
2022/01/26 03:45:09;;;;;;;12.65;5.75;;;6.30;92.50;;;;;;5010002;28;20522;-65
2022/01/26 03:47:35;;;;;;;12.43;5.85;;;6.30;92.50;;;;;;5013257;28;20028;-65
2022/01/26 03:50:00;;;;;;;11.70;5.90;;;6.40;92.60;;;;;;5013352;28;20036;-65
2022/01/26 03:52:26;;;;;;;10.73;5.00;;;6.30;92.50;;;;;;5016392;28;20030;-68
2022/01/26 03:54:51;;;;;;;13.35;5.85;;;6.30;92.60;;;;;;5013682;28;20107;-68
2022/01/26 03:57:17;;;;;;;17.23;5.80;;;6.40;92.60;;;;;;5011000;28;20026;-65
2022/01/26 03:59:43;;;;;;;11.77;5.60;;;6.30;92.10;;;;;;5013178;28;20033;-65
2022/01/26 04:02:08;;;;;;;11.15;5.00;;;6.30;91.90;;;;;;5009278;28;20116;-68
2022/01/26 04:04:42;;;;;;;10.32;4.70;;;6.20;92.10;;;;;;5013751;28;20032;-68
2022/01/26 04:07:08;;;;;;;10.02;4.70;;;6.30;92.10;;;;;;5009352;28;20033;-66
2022/01/26 04:09:34;;;;;;;11.38;4.68;;;6.20;92.10;;;;;;5014410;28;20063;-68
2022/01/26 04:12:00;;;;;;;11.52;5.03;;;6.20;92.00;;;;;;5017918;28;20481;-66
2022/01/26 04:14:32;;;;;;;11.75;4.47;;;6.20;92.10;;;;;;5000384;28;20447;-68
2022/01/26 04:16:57;;;;;;;9.80;4.32;;;6.10;92.40;;;;;;5015343;28;20116;-66
2022/01/26 04:19:24;;;;;;;9.95;4.45;;;6.20;92.50;;;;;;5012403;28;20496;-68
2022/01/26 04:24:24;;;;;;;9.63;4.47;;;6.10;92.30;;;;;;5010285;28;20034;-68
2022/01/26 04:29:30;;;;;;;12.32;5.20;;;6.10;92.20;;;;;;5027365;28;20848;-65
2022/01/26 04:31:58;;;;;;;13.05;5.25;;;6.10;92.10;;;;;;5012452;28;20065;-66
2022/01/26 04:34:24;;;;;;;13.15;5.13;;;6.10;92.10;;;;;;5011815;28;20168;-66
2022/01/26 04:37:09;;;;;;;12.18;5.25;;;6.00;92.10;;;;;;5012550;28;20079;-66
2022/01/26 04:39:42;;;;;;;11.55;5.10;;;6.10;92.30;;;;;;5016717;28;20044;-64
2022/01/26 04:42:15;;;;;;;16.15;5.50;;;6.10;92.30;;;;;;5016300;28;20030;-63
2022/01/26 04:44:47;;;;;;;18.15;6.38;;;6.10;92.20;;;;;;5012263;28;20105;-64
2022/01/26 04:47:13;;;;;;;15.10;5.78;;;6.10;92.10;;;;;;5011691;28;20113;-63
2022/01/26 04:49:38;;;;;;;11.20;5.07;;;6.00;92.10;;;;;;5010260;28;20367;-64
2022/01/26 04:52:04;;;;;;;12.95;5.85;;;6.10;92.20;;;;;;5025650;28;20104;-64
2022/01/26 04:54:30;;;;;;;13.60;5.68;;;6.10;92.20;;;;;;5012326;28;20037;-63
2022/01/26 04:56:56;;;;;;;13.80;6.00;;;6.10;92.00;;;;;;5016988;28;20799;-63
2022/01/26 04:59:22;;;;;;;15.52;5.57;;;6.00;92.10;;;;;;5012000;28;20029;-63
2022/01/26 05:05:36;;;;;;;14.32;5.50;;;6.00;92.20;;;;;;5002956;28;20567;-63
2022/01/26 05:08:01;;;;;;;15.13;6.35;;;6.00;92.30;;;;;;5013351;28;20144;-63
2022/01/26 05:10:28;;;;;;;18.42;6.88;;;6.00;92.40;;;;;;5016232;28;20038;-63
2022/01/26 05:12:54;;;;;;;18.58;6.18;;;6.00;92.30;;;;;;5012185;28;20037;-63
2022/01/26 05:15:22;;;;;;;19.10;7.15;;;6.00;92.30;;;;;;5010734;28;20057;-63
2022/01/26 05:17:48;;;;;;;19.40;6.47;;;6.00;92.40;;;;;;5010265;28;20548;-63
2022/01/26 05:20:15;;;;;;;18.05;6.70;;;5.90;92.40;;;;;;5014835;28;20057;-63
2022/01/26 05:22:43;;;;;;;19.85;7.47;;;5.90;92.50;;;;;;5012466;28;20026;-64
2022/01/26 05:25:09;;;;;;;18.08;7.10;;;6.00;92.40;;;;;;5011803;28;20033;-63
2022/01/26 05:27:35;;;;;;;21.88;6.97;;;6.00;92.40;;;;;;5010109;28;20835;-63
2022/01/26 05:30:01;;;;;;;23.75;7.10;;;6.00;92.30;;;;;;5011307;28;20025;-63
2022/01/26 05:32:27;;;;;;;20.33;7.55;;;6.00;92.70;;;;;;5010700;28;20034;-63
2022/01/26 05:34:53;;;;;;;21.90;7.68;;;6.00;92.30;;;;;;5026091;28;20025;-63
2022/01/26 05:37:19;;;;;;;20.90;7.38;;;5.90;92.30;;;;;;5014074;28;20457;-63
2022/01/26 05:39:45;;;;;;;22.13;8.10;;;5.90;92.30;;;;;;5017802;28;20556;-63
2022/01/26 05:42:11;;;;;;;24.80;8.05;;;5.90;92.00;;;;;;5014699;28;20042;-62
2022/01/26 05:44:36;;;;;;;20.20;7.88;;;5.90;92.10;;;;;;5012218;28;20033;-63
2022/01/26 05:47:06;;;;;;;24.50;8.43;;;5.90;92.10;;;;;;5033153;28;20807;-63
2022/01/26 05:49:31;;;;;;;27.38;9.35;;;5.90;92.00;;;;;;5032730;28;20096;-63
2022/01/26 05:51:57;;;;;;;20.80;7.57;;;5.90;91.90;;;;;;5018585;28;20041;-63
2022/01/26 05:54:23;;;;;;;24.67;8.13;;;5.90;91.90;;;;;;5017052;28;20303;-63
2022/01/26 05:56:48;;;;;;;22.08;8.80;;;5.90;91.90;;;;;;5017265;28;20072;-63
2022/01/26 05:59:17;;;;;;;22.95;7.90;;;5.90;91.90;;;;;;5011637;28;20037;-63
2022/01/26 06:01:43;;;;;;;25.58;9.20;;;5.90;91.90;;;;;;5017926;28;20021;-63
2022/01/26 06:04:08;;;;;;;21.75;7.72;;;5.80;91.90;;;;;;5016911;28;20853;-63
2022/01/26 06:06:34;;;;;;;19.35;7.70;;;5.80;91.90;;;;;;5014091;28;20045;-63
2022/01/26 06:09:00;;;;;;;19.23;8.13;;;5.80;91.70;;;;;;5018023;28;20030;-63
2022/01/26 06:11:25;;;;;;;24.88;9.15;;;5.80;91.80;;;;;;5016442;28;20576;-63
2022/01/26 06:13:51;;;;;;;23.25;8.60;;;5.80;91.90;;;;;;5015001;28;20125;-63
2022/01/26 06:16:17;;;;;;;22.00;8.73;;;5.80;91.80;;;;;;5012348;28;20044;-63
2022/01/26 06:18:44;;;;;;;26.38;8.50;;;5.80;91.90;;;;;;5011159;28;20115;-63
2022/01/26 06:21:10;;;;;;;19.27;7.22;;;5.70;92.00;;;;;;5017036;28;20034;-63
2022/01/26 06:23:35;;;;;;;19.80;7.82;;;5.70;92.00;;;;;;5018071;28;20053;-63
2022/01/26 06:26:01;;;;;;;24.27;8.75;;;5.80;92.10;;;;;;5020196;28;20406;-63
2022/01/26 06:28:28;;;;;;;20.55;7.85;;;5.80;92.20;;;;;;5009967;28;20478;-63
2022/01/26 06:30:59;;;;;;;25.98;8.35;;;5.80;92.30;;;;;;5016305;28;20116;-63
2022/01/26 06:33:26;;;;;;;26.15;8.73;;;5.80;92.30;;;;;;5019316;28;20029;-63
2022/01/26 06:35:52;;;;;;;21.40;7.90;;;5.70;92.00;;;;;;5016864;28;20033;-62
2022/01/26 06:38:18;;;;;;;24.08;8.10;;;5.70;92.20;;;;;;5017878;28;20030;-64
2022/01/26 06:40:43;;;;;;;19.25;8.05;;;5.70;92.20;;;;;;5009561;28;20037;-63
2022/01/26 06:43:13;;;;;;;23.38;9.13;;;5.70;92.10;;;;;;5013609;28;20033;-63
2022/01/26 06:45:49;;;;;;;27.00;8.93;;;5.70;92.10;;;;;;5017988;28;20052;-63
2022/01/26 06:50:43;;;;;;;21.25;8.60;;;5.70;92.10;;;;;;5011396;28;20047;-63
2022/01/26 06:53:09;;;;;;;22.20;8.38;;;5.70;92.00;;;;;;5023150;28;20041;-63
2022/01/26 06:55:37;;;;;;;21.02;8.07;;;5.70;92.00;;;;;;5012864;28;20029;-63
2022/01/26 06:58:03;;;;;;;28.90;9.27;;;5.70;92.10;;;;;;5013901;28;20033;-63
2022/01/26 07:00:29;;;;;;;23.60;9.63;;;5.70;91.80;;;;;;5012455;28;20029;-63
2022/01/26 07:02:55;;;;;;;20.98;8.25;;;5.70;91.70;;;;;;5017085;28;20041;-63
2022/01/26 07:05:22;;;;;;;21.15;8.30;;;5.70;91.80;;;;;;5018267;28;20096;-63
2022/01/26 07:07:48;;;;;;;28.70;9.15;;;5.60;91.80;;;;;;5020716;28;20084;-64
2022/01/26 07:10:14;;;;;;;23.85;8.25;;;5.60;92.00;;;;;;5013187;28;20041;-63
2022/01/26 07:12:39;;;;;;;23.98;9.10;;;5.70;91.90;;;;;;5015634;28;20029;-63
2022/01/26 07:23:19;;;;;;;22.80;7.93;;;5.70;91.90;;;;;;5011614;28;20029;-63
2022/01/26 07:25:45;;;;;;;24.70;8.77;;;5.70;91.80;;;;;;5014309;28;20540;-63
2022/01/26 07:28:11;;;;;;;23.08;8.90;;;5.60;91.90;;;;;;5017701;28;20033;-64
2022/01/26 07:30:37;;;;;;;21.80;8.52;;;5.60;91.80;;;;;;5012937;28;20066;-64
2022/01/26 07:33:04;;;;;;;19.75;8.20;;;5.60;91.90;;;;;;5014722;28;20502;-63
2022/01/26 07:35:30;;;;;;;23.83;9.10;;;5.60;91.90;;;;;;5016487;28;20529;-63
2022/01/26 07:38:01;;;;;;;24.80;8.52;;;5.60;92.10;;;;;;5013814;28;20135;-63
2022/01/26 07:40:27;;;;;;;21.98;7.95;;;5.60;92.40;;;;;;5016741;28;20037;-63
2022/01/26 07:42:53;;;;;;;21.38;8.05;;;5.70;92.10;;;;;;5015872;28;20033;-63
2022/01/26 07:45:20;;;;;;;23.77;8.45;;;5.70;92.10;;;;;;5016062;28;20105;-63
2022/01/26 07:47:47;;;;;;;22.63;9.43;;;5.80;92.00;;;;;;5006310;28;20709;-64
2022/01/26 07:50:15;;;;;;;18.88;8.93;;;5.80;91.90;;;;;;5015162;28;20084;-63
2022/01/26 07:52:42;;;;;;;17.20;7.93;;;5.80;91.80;;;;;;5015124;28;20037;-63
2022/01/26 07:55:10;;;;;;;23.98;9.07;;;5.90;91.90;;;;;;5016397;28;20044;-63
2022/01/26 07:57:37;;;;;;;18.83;8.15;;;5.90;91.80;;;;;;5004792;28;20029;-63
2022/01/26 08:00:04;;;;;;;21.65;9.40;;;6.00;91.80;;;;;;5018747;28;20100;-63
2022/01/26 08:02:39;;;;;;;23.33;8.50;;;5.90;91.10;;;;;;5014220;28;20033;-63
2022/01/26 08:05:06;;;;;;;21.30;8.48;;;5.90;91.40;;;;;;5012597;28;20645;-63
2022/01/26 08:07:31;;;;;;;19.75;8.85;;;6.00;91.40;;;;;;5011381;28;20045;-64
2022/01/26 08:09:57;;;;;;;18.83;8.80;;;6.00;91.30;;;;;;5017834;28;20030;-64
2022/01/26 08:12:23;;;;;;;20.50;8.40;;;5.90;91.30;;;;;;5013896;28;20048;-63
2022/01/26 08:14:49;;;;;;;21.92;8.32;;;6.00;91.50;;;;;;5014707;28;20033;-66
2022/01/26 08:17:15;;;;;;;21.60;9.38;;;6.00;91.50;;;;;;5013716;28;20033;-66
2022/01/26 08:19:41;;;;;;;19.27;8.10;;;6.00;91.50;;;;;;5011120;28;20026;-66
2022/01/26 08:22:07;;;;;;;19.80;8.13;;;6.00;91.50;;;;;;5008076;28;20032;-67
2022/01/26 08:24:33;;;;;;;19.77;8.27;;;6.00;91.80;;;;;;5018184;28;20033;-66
2022/01/26 08:27:06;;;;;;;17.40;7.63;;;6.00;91.50;;;;;;5011365;28;20034;-66
2022/01/26 08:29:40;;;;;;;17.30;7.90;;;6.10;91.70;;;;;;5013625;28;20608;-67
2022/01/26 08:32:06;;;;;;;20.13;8.32;;;6.10;91.60;;;;;;5013973;28;20037;-70
2022/01/26 08:34:32;;;;;;;19.67;8.43;;;6.20;91.50;;;;;;5013421;28;20041;-66
2022/01/26 08:36:58;;;;;;;20.70;7.93;;;6.20;91.50;;;;;;5013446;28;20112;-66
2022/01/26 08:39:24;;;;;;;22.67;8.25;;;6.20;91.30;;;;;;5017548;28;20904;-66
2022/01/26 08:41:50;;;;;;;15.98;7.13;;;6.30;91.40;;;;;;5014726;28;20096;-66
2022/01/26 08:44:16;;;;;;;18.65;7.63;;;6.30;91.30;;;;;;5018484;28;20044;-65
2022/01/26 08:46:42;;;;;;;20.42;7.68;;;6.30;91.30;;;;;;4996582;28;20030;-66
2022/01/26 08:49:08;;;;;;;16.80;7.38;;;6.30;90.80;;;;;;5016845;28;20060;-67
2022/01/26 08:51:34;;;;;;;20.13;8.23;;;6.30;91.00;;;;;;5014472;28;20040;-66
2022/01/26 08:54:00;;;;;;;19.48;8.88;;;6.30;91.10;;;;;;5017179;28;20034;-65
2022/01/26 08:56:26;;;;;;;17.13;7.75;;;6.40;90.80;;;;;;5013956;28;20033;-65
2022/01/26 08:58:53;;;;;;;20.58;8.32;;;6.40;91.00;;;;;;5015371;28;20099;-66
2022/01/26 09:01:19;;;;;;;19.75;8.13;;;6.40;90.90;;;;;;5015682;28;20555;-65
2022/01/26 09:03:45;;;;;;;18.90;8.75;;;6.40;90.90;;;;;;5015108;28;20837;-65
2022/01/26 09:06:12;;;;;;;14.07;6.93;;;6.50;90.90;;;;;;5014638;28;20108;-65
2022/01/26 09:08:40;;;;;;;17.02;7.22;;;6.50;90.80;;;;;;5014845;28;20069;-65
2022/01/26 09:11:08;;;;;;;19.35;7.35;;;6.40;90.90;;;;;;5007308;28;20044;-65
2022/01/26 09:13:35;;;;;;;19.40;8.07;;;6.50;91.00;;;;;;5021720;28;20029;-65
2022/01/26 09:16:06;;;;;;;18.23;8.02;;;6.50;91.10;;;;;;5018902;28;20029;-65
2022/01/26 09:18:43;;;;;;;19.35;7.57;;;6.50;90.90;;;;;;5017053;28;20707;-66
2022/01/26 09:21:09;;;;;;;17.92;7.05;;;6.60;90.80;;;;;;5016922;28;20033;-65
2022/01/26 09:23:35;;;;;;;15.32;7.40;;;6.50;90.80;;;;;;5015851;28;20084;-66
2022/01/26 09:26:01;;;;;;;17.60;7.40;;;6.50;90.90;;;;;;5017927;28;20489;-66
2022/01/26 09:28:26;;;;;;;18.15;7.88;;;6.40;90.90;;;;;;5016841;28;20947;-66
2022/01/26 09:30:52;;;;;;;14.43;6.63;;;6.40;90.90;;;;;;5018327;28;20040;-63
2022/01/26 09:33:19;;;;;;;16.80;7.53;;;6.40;91.00;;;;;;5015109;28;20123;-67
2022/01/26 09:35:45;;;;;;;19.90;6.97;;;6.40;90.70;;;;;;5015698;28;20040;-67
2022/01/26 09:38:11;;;;;;;18.10;6.82;;;6.50;90.90;;;;;;5016901;28;20029;-67
2022/01/26 09:40:37;;;;;;;15.55;6.75;;;6.50;90.70;;;;;;5019693;28;20155;-67
2022/01/26 09:43:04;;;;;;;14.93;7.03;;;6.50;90.70;;;;;;5020678;28;20037;-66
2022/01/26 09:45:34;;;;;;;15.45;7.43;;;6.50;90.50;;;;;;5017072;28;20040;-65
2022/01/26 09:48:01;;;;;;;14.38;6.65;;;6.50;90.90;;;;;;5020522;28;20065;-66
2022/01/26 09:50:27;;;;;;;14.73;6.13;;;6.50;90.90;;;;;;5018744;28;20039;-66
2022/01/26 09:52:55;;;;;;;12.00;6.00;;;6.60;90.90;;;;;;5015616;28;20046;-66
2022/01/26 09:55:21;;;;;;;16.27;6.78;;;6.60;91.00;;;;;;5012539;28;20045;-67
2022/01/26 09:57:47;;;;;;;14.98;6.60;;;6.70;90.60;;;;;;5004165;28;20881;-66
2022/01/26 10:00:14;;;;;;;14.07;8.15;;;6.70;90.50;;;;;;5024977;28;20033;-67
2022/01/26 10:02:43;;;;;;;15.05;7.07;;;6.70;90.60;;;;;;5012830;28;20566;-66
2022/01/26 10:05:15;;;;;;;13.60;7.40;;;6.70;90.50;;;;;;5022490;28;20034;-66
2022/01/26 10:08:07;;;;;;;14.43;6.65;;;6.80;90.40;;;;;;5016404;28;20048;-66
2022/01/26 10:15:27;;;;;;;15.05;6.22;;;6.70;90.40;;;;;;5023526;28;20029;-66
2022/01/26 10:16:54;;;;;;;15.38;6.28;;;6.80;89.90;;;;;;5013067;28;20137;-66
2022/01/26 10:19:07;;;;;;;15.07;6.93;;;6.90;89.90;;;;;;5012841;28;20084;-66
2022/01/26 10:21:33;;;;;;;15.48;7.07;;;6.90;89.40;;;;;;5016978;28;20029;-66
2022/01/26 10:24:08;;;;;;;12.95;6.10;;;6.90;89.40;;;;;;5010691;28;20104;-66
2022/01/26 10:26:34;;;;;;;16.05;7.47;;;6.90;89.80;;;;;;5017448;28;20030;-67
2022/01/26 10:29:02;;;;;;;18.00;7.13;;;7.00;90.10;;;;;;5012866;28;20044;-67
2022/01/26 10:31:39;;;;;;;17.27;7.63;;;7.10;90.10;;;;;;5018602;28;20052;-66
2022/01/26 10:34:15;;;;;;;14.48;7.38;;;7.20;90.50;;;;;;5020757;28;20033;-70
2022/01/26 10:36:42;;;;;;;;;;;7.30;89.70;;;;;;5016182;28;20849;-68
2022/01/26 10:39:15;;;;;;;12.55;5.88;;;7.20;88.70;;;;;;5018279;28;19964;-68
2022/01/26 10:41:44;;;;;;;10.60;5.65;;;7.20;88.60;;;;;;5013750;28;20058;-68
2022/01/26 10:44:09;;;;;;;12.25;5.25;;;7.10;88.00;;;;;;5030353;28;20175;-68
2022/01/26 10:46:39;;;;;;;12.70;4.95;;;6.90;88.80;;;;;;5020850;28;20781;-68
2022/01/26 10:54:23;;;;;;;13.35;5.95;;;7.00;90.00;;;;;;5020346;28;20061;-68
2022/01/26 10:56:51;;;;;;;12.45;5.10;;;7.10;89.90;;;;;;5015558;28;20154;-68
2022/01/26 10:59:18;;;;;;;9.77;4.30;;;7.10;89.80;;;;;;5017583;28;20038;-67
2022/01/26 11:01:44;;;;;;;14.75;5.32;;;7.20;89.60;;;;;;5017376;28;20428;-67
2022/01/26 11:04:10;;;;;;;8.65;3.75;;;7.20;89.10;;;;;;5017433;28;20033;-67
2022/01/26 11:06:37;;;;;;;9.18;3.70;;;7.20;88.00;;;;;;5018195;28;20036;-67
2022/01/26 11:09:10;;;;;;;8.15;3.97;;;7.20;88.00;;;;;;5017164;28;20057;-67
2022/01/26 11:11:39;;;;;;;6.65;3.28;;;7.10;88.60;;;;;;5017037;28;20037;-67
2022/01/26 11:14:22;;;;;;;8.50;3.80;;;7.10;89.00;;;;;;5021497;28;20025;-67
2022/01/26 11:17:01;;;;;;;9.82;3.53;;;7.00;89.00;;;;;;5012540;28;20076;-68
2022/01/26 11:19:27;;;;;;;8.90;3.90;;;6.80;87.80;;;;;;5019940;28;20503;-67
2022/01/26 11:21:52;;;;;;;5.72;3.30;;;6.70;88.30;;;;;;5015589;28;20039;-68
2022/01/26 11:24:23;;;;;;;10.20;5.07;;;6.60;88.70;;;;;;5017336;28;20037;-68
2022/01/26 11:27:02;;;;;;;9.68;4.20;;;6.50;89.60;;;;;;5015660;28;20030;-67
2022/01/26 11:29:33;;;;;;;8.50;4.25;;;6.50;89.60;;;;;;5012295;28;20030;-66
2022/01/26 11:32:11;;;;;;;7.80;4.03;;;6.50;90.20;;;;;;5013528;28;20034;-67
2022/01/26 11:34:37;;;;;;;8.27;4.22;;;6.40;90.20;;;;;;5015449;28;20034;-67
2022/01/26 11:37:07;;;;;;;11.07;4.20;;;6.40;90.30;;;;;;5027555;28;20026;-68
2022/01/26 11:45:07;;;;;;;13.02;5.30;;;6.40;90.30;;;;;;5012957;28;20045;-68
2022/01/26 11:47:34;;;;;;;10.10;4.57;;;6.30;90.00;;;;;;5009889;28;20045;-67
2022/01/26 11:50:07;;;;;;;12.88;4.45;;;6.30;90.10;;;;;;5020612;28;20544;-67
2022/01/26 11:52:40;;;;;;;12.02;4.60;;;6.10;90.40;;;;;;5016940;28;20047;-68
2022/01/26 11:55:33;;;;;;;10.70;4.32;;;6.10;90.70;;;;;;5014857;28;20394;-69
2022/01/26 11:58:18;;;;;;;11.48;5.20;;;6.10;90.60;;;;;;5015853;28;20153;-68
2022/01/26 12:00:56;;;;;;;11.93;4.80;;;6.10;90.60;;;;;;5017639;28;20029;-67
2022/01/26 12:03:34;;;;;;;12.43;5.22;;;6.10;90.50;;;;;;5018254;28;20038;-68
2022/01/26 12:06:01;;;;;;;11.38;4.60;;;6.10;90.60;;;;;;5012955;28;20068;-68
2022/01/26 12:08:38;;;;;;;16.17;6.22;;;6.10;90.40;;;;;;5025702;28;20029;-68
2022/01/26 12:11:07;;;;;;;13.85;4.85;;;6.00;90.00;;;;;;5007580;28;20096;-68
2022/01/26 12:13:37;;;;;;;18.15;4.95;;;6.00;89.90;;;;;;5009800;28;20040;-68
2022/01/26 12:16:12;;;;;;;16.42;5.35;;;6.00;89.50;;;;;;5021212;28;20033;-69
2022/01/26 12:18:45;;;;;;;12.63;4.97;;;5.90;89.50;;;;;;5015415;28;20025;-69
2022/01/26 12:35:20;;;;;;;21.48;7.65;;;5.80;90.00;;;;;;5014362;28;20464;-65
2022/01/26 12:37:59;;;;;;;17.77;6.90;;;5.80;90.30;;;;;;5007702;28;20053;-64
2022/01/26 12:43:55;;;;;;;21.75;7.22;;;5.70;90.10;;;;;;5012855;28;20037;-65
2022/01/26 12:46:27;;;;;;;23.73;8.15;;;5.70;90.10;;;;;;5012370;28;20045;-64
2022/01/26 12:48:56;;;;;;;20.83;7.75;;;5.70;90.20;;;;;;5010094;28;20059;-65
2022/01/26 12:51:22;;;;;;;20.17;7.53;;;5.70;90.30;;;;;;5016816;28;20047;-65
2022/01/26 12:53:55;;;;;;;23.65;8.30;;;5.70;90.30;;;;;;5015764;28;20033;-64
2022/01/26 12:56:25;;;;;;;24.90;8.25;;;5.70;90.10;;;;;;5011470;28;20060;-66
2022/01/26 12:58:59;;;;;;;25.08;8.07;;;5.70;90.10;;;;;;5015615;28;20116;-65
2022/01/26 13:01:25;;;;;;;28.20;9.50;;;5.70;89.80;;;;;;5014251;28;20040;-65
2022/01/26 13:03:59;;;;;;;22.95;7.35;;;5.70;90.30;;;;;;5013976;28;20022;-64
2022/01/26 13:06:35;;;;;;;24.85;8.05;;;5.60;88.80;;;;;;5012995;28;20067;-65
2022/01/26 13:09:14;;;;;;;25.67;8.32;;;5.60;87.50;;;;;;5009788;28;20056;-65
2022/01/26 13:11:40;;;;;;;31.10;9.77;;;5.50;89.20;;;;;;5010097;28;20038;-65
2022/01/26 13:14:31;;;;;;;27.38;9.50;;;5.50;89.20;;;;;;5011891;28;20026;-65
2022/01/26 13:19:48;;;;;;;35.33;10.27;;;5.40;89.90;;;;;;5015171;28;20044;-64
2022/01/26 13:27:41;;;;;;;30.70;9.40;;;5.40;90.30;;;;;;5015951;28;20045;-64
2022/01/26 13:30:35;;;;;;;34.10;10.38;;;5.40;90.00;;;;;;5015262;28;20037;-64
2022/01/26 13:40:56;;;;;;;32.92;10.35;;;5.40;89.10;;;;;;5010815;28;20030;-63
2022/01/26 13:56:18;;;;;;;42.25;12.30;;;5.30;88.70;;;;;;5015223;28;20037;-63
2022/01/26 14:01:19;;;;;;;40.40;10.80;;;5.20;89.20;;;;;;5017205;28;20035;-65
2022/01/26 14:03:48;;;;;;;39.92;10.50;;;5.20;89.80;;;;;;5017442;28;20048;-65
2022/01/26 14:06:14;;;;;;;38.22;10.27;;;5.10;89.50;;;;;;5020691;28;20460;-65
2022/01/26 14:08:41;;;;;;;34.65;10.65;;;5.10;88.70;;;;;;5016869;28;20065;-65
2022/01/26 14:11:08;;;;;;;41.78;10.98;;;5.10;88.80;;;;;;5000417;28;20046;-64
2022/01/26 14:13:35;;;;;;;37.35;10.45;;;5.00;88.90;;;;;;5032600;28;20048;-64
2022/01/26 14:16:04;;;;;;;41.30;12.27;;;5.00;89.10;;;;;;5017966;28;20036;-65
2022/01/26 14:21:25;;;;;;;35.17;9.70;;;5.00;89.90;;;;;;5020133;28;20725;-67
2022/01/26 14:26:32;;;;;;;31.20;10.13;;;5.00;89.90;;;;;;5031367;28;20040;-65
2022/01/26 14:28:59;;;;;;;29.88;9.32;;;5.00;88.90;;;;;;5015699;28;20033;-64
2022/01/26 14:31:37;;;;;;;27.85;8.85;;;5.00;89.00;;;;;;5011468;28;20041;-65
2022/01/26 14:39:28;;;;;;;29.63;8.27;;;5.10;88.50;;;;;;5013499;28;20551;-65
2022/01/26 14:51:04;;;;;;;27.77;7.93;;;5.20;88.80;;;;;;5016138;28;20037;-65
2022/01/26 14:56:14;;;;;;;28.80;8.40;;;5.10;89.00;;;;;;5015007;28;20378;-66
2022/01/26 15:09:51;;;;;;;33.08;11.27;;;5.00;89.60;;;;;;5015669;28;20028;-66
2022/01/26 15:33:44;;;;;;;95.88;30.27;;;4.90;90.80;;;;;;5014952;28;20091;-69
2022/01/26 15:41:57;;;;;;;50.92;16.30;;;4.90;90.90;;;;;;5015927;28;20069;-69
2022/01/26 15:44:37;;;;;;;67.82;19.60;;;5.00;91.00;;;;;;5012167;28;20115;-67
2022/01/26 15:49:56;;;;;;;113.30;34.00;;;5.00;90.80;;;;;;5018108;28;20037;-67
2022/01/26 15:52:46;;;;;;;87.28;28.35;;;5.00;90.50;;;;;;5014327;28;20117;-69
2022/01/26 15:58:11;;;;;;;89.63;28.20;;;4.90;90.80;;;;;;5017082;28;20806;-69
2022/01/26 16:06:20;;;;;;;74.18;21.25;;;4.80;90.80;;;;;;5018705;28;20069;-69
2022/01/26 16:20:16;;;;;;;71.13;20.65;;;4.80;90.80;;;;;;5016873;28;20121;-70
2022/01/26 17:11:51;;;;;;;79.20;23.70;;;4.80;91.00;;;;;;5006807;28;20042;-64
2022/01/26 18:38:58;;;;;;;78.72;23.10;;;5.20;90.30;;;;;;5020486;28;20030;-68
2022/01/26 18:49:40;;;;;;;79.63;22.40;;;5.30;90.20;;;;;;4994768;28;20849;-69
2022/01/26 18:52:07;;;;;;;79.93;22.52;;;5.30;90.20;;;;;;5009987;28;20155;-69
2022/01/26 18:54:38;;;;;;;76.88;23.75;;;5.30;90.30;;;;;;5029920;28;20025;-70
2022/01/26 18:57:07;;;;;;;67.55;21.13;;;5.30;90.20;;;;;;5029035;28;20116;-69
2022/01/26 18:59:33;;;;;;;76.57;23.00;;;5.30;90.30;;;;;;5012494;28;20030;-69
2022/01/26 19:02:03;;;;;;;74.18;22.35;;;5.30;90.20;;;;;;5009976;28;20216;-69
2022/01/26 19:04:37;;;;;;;71.78;22.00;;;5.40;90.40;;;;;;5009784;28;20062;-69
2022/01/26 19:07:05;;;;;;;73.07;21.33;;;5.40;90.30;;;;;;5015105;28;20401;-68
2022/01/26 19:09:35;;;;;;;71.95;22.23;;;5.40;90.60;;;;;;5031187;28;20458;-69
2022/01/26 19:12:08;;;;;;;73.53;21.75;;;5.50;90.40;;;;;;5016849;28;20028;-69
2022/01/26 19:14:38;;;;;;;67.22;20.88;;;5.50;90.20;;;;;;5014693;28;20105;-70
2022/01/26 19:17:11;;;;;;;71.18;21.52;;;5.50;90.10;;;;;;5016766;28;20795;-69
2022/01/26 19:19:51;;;;;;;69.28;21.55;;;5.50;90.40;;;;;;5018691;28;20052;-69
2022/01/26 19:25:17;;;;;;;65.75;20.25;;;5.50;90.40;;;;;;5010504;28;20030;-69
2022/01/26 19:44:11;;;;;;;65.45;19.70;;;5.40;90.90;;;;;;5010629;28;20026;-68
2022/01/26 19:52:11;;;;;;;59.20;18.25;;;5.40;91.10;;;;;;5017765;28;20037;-70
2022/01/26 19:54:41;;;;;;;60.55;18.30;;;5.40;91.00;;;;;;5010584;28;20037;-70